Time;durP1;ratioP1;P1;durP2;ratioP2;P2;SDS_P1;SDS_P2;PMS_P1;PMS_P2;Temp;Humidity;BMP_temperature;BMP_pressure;BME280_temperature;BME280_humidity;BME280_pressure;Samples;Min_cycle;Max_cycle;Signal;HPM_P1;HPM_P2
2022/08/05 00:01:32;;;;;;;5.18;4.68;;;19.40;99.90;;;;;;6125920;23;20338;-79
2022/08/05 00:04:16;;;;;;;3.95;3.50;;;19.30;99.90;;;;;;6128955;23;20014;-79
2022/08/05 00:06:44;;;;;;;4.25;3.85;;;19.40;99.90;;;;;;6116582;23;20025;-80
2022/08/05 00:09:14;;;;;;;4.70;3.70;;;19.40;99.90;;;;;;6100228;23;20026;-79
2022/08/05 00:11:47;;;;;;;6.03;4.28;;;19.30;99.90;;;;;;6094841;23;20021;-79
2022/08/05 00:14:22;;;;;;;3.75;3.50;;;19.30;99.90;;;;;;6122089;23;20030;-79
2022/08/05 00:16:56;;;;;;;4.35;3.95;;;19.30;99.90;;;;;;6127600;23;20026;-79
2022/08/05 00:19:25;;;;;;;4.15;3.85;;;19.30;99.90;;;;;;6130737;23;20442;-80
2022/08/05 00:22:07;;;;;;;3.92;3.63;;;19.30;99.90;;;;;;6116658;23;20026;-81
2022/08/05 00:24:38;;;;;;;;;;;19.30;99.90;;;;;;6094439;23;20018;-79
2022/08/05 00:27:09;;;;;;;4.13;3.80;;;19.30;99.90;;;;;;6130214;23;19939;-80
2022/08/05 00:29:55;;;;;;;7.72;4.55;;;19.20;99.90;;;;;;6121561;23;20018;-81
2022/08/05 00:32:22;;;;;;;4.45;4.03;;;19.20;99.90;;;;;;6094287;23;20025;-79
2022/08/05 00:34:52;;;;;;;9.13;4.20;;;19.20;99.90;;;;;;6118531;23;20029;-79
2022/08/05 00:37:34;;;;;;;6.82;5.13;;;19.10;99.90;;;;;;6121834;23;20022;-80
2022/08/05 00:40:22;;;;;;;4.50;4.20;;;19.10;99.90;;;;;;6130895;23;20010;-80
2022/08/05 00:42:57;;;;;;;4.10;3.70;;;19.10;99.90;;;;;;6120090;23;20030;-79
2022/08/05 00:45:25;;;;;;;4.70;4.23;;;19.20;99.90;;;;;;6125902;23;20026;-79
2022/08/05 00:48:10;;;;;;;5.05;4.00;;;19.20;99.90;;;;;;6127841;23;20029;-79
2022/08/05 00:50:41;;;;;;;3.53;3.30;;;19.30;99.90;;;;;;6119344;23;20030;-80
2022/08/05 00:53:15;;;;;;;5.88;4.32;;;19.30;99.90;;;;;;6092259;23;20496;-79
2022/08/05 00:56:04;;;;;;;3.92;3.65;;;19.20;99.90;;;;;;6084137;23;20018;-79
2022/08/05 00:58:35;;;;;;;8.43;4.43;;;19.10;99.90;;;;;;6093790;23;20350;-79
2022/08/05 01:01:04;;;;;;;4.30;4.00;;;19.10;99.90;;;;;;6094218;23;20033;-80
2022/08/05 01:03:37;;;;;;;6.97;4.40;;;19.00;99.90;;;;;;6094286;23;20014;-79
2022/08/05 01:06:05;;;;;;;5.97;3.35;;;19.00;99.90;;;;;;6094217;23;20022;-79
2022/08/05 01:08:42;;;;;;;7.20;3.88;;;18.90;99.90;;;;;;6091470;23;20029;-79
2022/08/05 01:11:21;;;;;;;10.15;4.82;;;18.80;99.90;;;;;;6119019;23;20450;-80
2022/08/05 01:14:12;;;;;;;9.00;4.68;;;18.70;99.90;;;;;;6122147;23;20026;-80
2022/08/05 01:16:49;;;;;;;3.75;3.45;;;18.80;99.90;;;;;;6128607;23;20025;-79
2022/08/05 01:19:21;;;;;;;4.85;4.45;;;18.70;99.90;;;;;;6094291;23;20485;-80
2022/08/05 01:22:42;;;;;;;4.57;4.10;;;18.60;99.90;;;;;;6120743;23;20026;-79
2022/08/05 01:25:33;;;;;;;4.38;4.07;;;18.60;99.90;;;;;;6126448;23;20021;-80
2022/08/05 01:28:41;;;;;;;4.32;4.03;;;18.70;99.90;;;;;;6128124;23;20010;-79
2022/08/05 01:31:27;;;;;;;4.63;4.22;;;18.70;99.90;;;;;;6103930;23;20022;-80
2022/08/05 01:34:29;;;;;;;3.67;3.40;;;18.80;99.90;;;;;;6121722;23;20120;-79
2022/08/05 01:37:13;;;;;;;4.22;3.92;;;18.70;99.90;;;;;;6099688;23;20029;-80
2022/08/05 01:39:55;;;;;;;4.40;4.00;;;18.50;99.90;;;;;;6093709;23;20312;-79
2022/08/05 01:42:28;;;;;;;4.15;3.80;;;18.40;99.90;;;;;;6095483;23;20354;-79
2022/08/05 01:45:01;;;;;;;4.70;4.15;;;18.30;99.90;;;;;;6117909;23;20589;-79
2022/08/05 01:47:33;;;;;;;4.30;3.90;;;18.30;99.90;;;;;;6093969;23;20023;-79
2022/08/05 01:50:27;;;;;;;6.03;3.85;;;18.30;99.90;;;;;;6117947;23;20036;-80
2022/08/05 01:53:05;;;;;;;4.25;3.95;;;18.40;99.90;;;;;;6126072;23;20030;-80
2022/08/05 01:55:36;;;;;;;4.25;3.95;;;18.30;99.90;;;;;;6094722;23;20014;-79
2022/08/05 01:58:06;;;;;;;4.93;4.53;;;18.30;99.90;;;;;;6096630;23;20028;-79
2022/08/05 02:00:50;;;;;;;5.43;4.82;;;18.20;99.90;;;;;;6127990;23;20032;-79
2022/08/05 02:03:31;;;;;;;6.28;4.40;;;18.00;99.90;;;;;;6128340;23;20018;-79
2022/08/05 02:06:04;;;;;;;4.50;4.07;;;18.00;99.90;;;;;;6122422;23;20018;-79
2022/08/05 02:08:52;;;;;;;5.00;4.50;;;18.00;99.90;;;;;;6094481;23;20026;-79
2022/08/05 02:11:32;;;;;;;5.30;4.80;;;18.00;99.90;;;;;;6132026;23;20017;-79
2022/08/05 02:14:10;;;;;;;4.45;4.05;;;18.10;99.90;;;;;;6124798;23;20376;-79
2022/08/05 02:16:51;;;;;;;7.28;4.50;;;18.20;99.90;;;;;;6128620;23;20014;-79
2022/08/05 02:19:27;;;;;;;8.02;4.65;;;18.20;99.90;;;;;;6095375;23;20022;-79
2022/08/05 02:22:30;;;;;;;4.25;3.83;;;18.10;99.90;;;;;;6117215;23;20022;-79
2022/08/05 02:25:07;;;;;;;5.50;5.00;;;18.00;99.90;;;;;;6129016;23;20260;-79
2022/08/05 02:27:41;;;;;;;4.00;3.70;;;17.90;99.90;;;;;;6105579;23;20010;-79
2022/08/05 02:30:43;;;;;;;5.78;4.80;;;18.00;99.90;;;;;;6095470;23;20022;-79
2022/08/05 02:33:22;;;;;;;9.00;5.15;;;18.00;99.90;;;;;;6094724;23;20201;-79
2022/08/05 02:36:12;;;;;;;4.45;4.05;;;17.90;99.90;;;;;;6119869;23;20335;-79
2022/08/05 02:38:46;;;;;;;5.20;4.80;;;17.80;99.90;;;;;;6119461;23;20026;-79
2022/08/05 02:41:22;;;;;;;4.57;4.20;;;17.80;99.90;;;;;;6071535;23;20374;-79
2022/08/05 02:43:57;;;;;;;5.40;5.00;;;17.80;99.90;;;;;;6131566;23;20484;-80
2022/08/05 02:46:41;;;;;;;7.00;5.40;;;17.80;99.90;;;;;;6119059;23;20379;-79
2022/08/05 02:49:33;;;;;;;7.32;5.18;;;17.80;99.90;;;;;;6119074;23;20022;-79
2022/08/05 02:52:16;;;;;;;5.53;4.78;;;17.70;99.90;;;;;;6129913;23;20338;-80
2022/08/05 02:54:59;;;;;;;6.78;5.68;;;17.70;99.90;;;;;;6118931;23;20034;-79
2022/08/05 02:57:33;;;;;;;4.80;4.38;;;17.60;99.90;;;;;;6126097;23;20022;-79
2022/08/05 03:00:20;;;;;;;6.57;6.03;;;17.60;99.90;;;;;;6131663;23;20517;-79
2022/08/05 03:02:52;;;;;;;;;;;17.60;99.90;;;;;;6120895;23;20303;-79
2022/08/05 03:05:20;;;;;;;5.53;4.78;;;17.60;99.90;;;;;;6125254;23;20123;-79
2022/08/05 03:08:09;;;;;;;5.68;5.20;;;17.70;99.90;;;;;;6129050;23;20010;-79
2022/08/05 03:10:40;;;;;;;5.88;5.38;;;17.80;99.90;;;;;;6120017;23;20458;-79
2022/08/05 03:13:27;;;;;;;10.65;6.03;;;17.80;99.90;;;;;;6126494;23;20041;-79
2022/08/05 03:16:15;;;;;;;4.75;4.43;;;17.80;99.90;;;;;;6131836;23;20021;-79
2022/08/05 03:18:46;;;;;;;5.30;4.90;;;17.80;99.90;;;;;;6071070;23;20473;-79
2022/08/05 03:21:15;;;;;;;8.00;6.13;;;17.90;99.90;;;;;;6127340;23;20033;-79
2022/08/05 03:23:44;;;;;;;5.30;4.80;;;18.00;99.90;;;;;;6127822;23;20014;-79
2022/08/05 03:26:12;;;;;;;5.03;4.63;;;18.00;99.90;;;;;;6094911;23;20032;-79
2022/08/05 03:28:59;;;;;;;6.22;5.72;;;18.00;99.90;;;;;;6094638;23;20454;-79
2022/08/05 03:31:28;;;;;;;8.48;4.88;;;18.00;99.90;;;;;;6095156;23;20018;-79
2022/08/05 03:34:15;;;;;;;7.38;5.80;;;18.00;99.90;;;;;;6119192;23;20021;-79
2022/08/05 03:36:44;;;;;;;5.53;5.03;;;17.90;99.90;;;;;;6116740;23;20022;-79
2022/08/05 03:39:12;;;;;;;5.75;5.15;;;18.00;99.90;;;;;;6094794;23;20021;-79
2022/08/05 03:41:54;;;;;;;5.50;4.68;;;18.00;99.90;;;;;;6123191;23;20025;-79
2022/08/05 03:44:24;;;;;;;4.85;4.45;;;18.20;99.90;;;;;;6129181;23;20025;-79
2022/08/05 03:46:55;;;;;;;5.03;4.63;;;18.30;99.90;;;;;;6093849;23;20429;-79
2022/08/05 03:49:23;;;;;;;5.18;4.70;;;18.20;99.90;;;;;;6094050;23;20053;-79
2022/08/05 03:52:17;;;;;;;5.88;5.47;;;18.30;99.90;;;;;;6128946;23;20014;-79
2022/08/05 03:55:09;;;;;;;7.85;4.53;;;18.30;99.90;;;;;;6127181;23;20036;-79
2022/08/05 03:58:15;;;;;;;5.60;5.00;;;18.30;99.90;;;;;;6093956;23;20078;-80
2022/08/05 04:00:44;;;;;;;5.60;5.10;;;18.40;99.90;;;;;;6094342;23;20025;-82
2022/08/05 04:03:20;;;;;;;5.35;4.85;;;18.30;99.90;;;;;;6094755;23;20025;-82
2022/08/05 04:05:56;;;;;;;5.07;4.68;;;18.30;99.90;;;;;;6097998;23;20030;-81
2022/08/05 04:08:29;;;;;;;9.10;6.03;;;18.20;99.90;;;;;;6128550;23;20465;-82
2022/08/05 04:11:06;;;;;;;5.07;4.68;;;18.20;99.90;;;;;;6103517;23;20264;-82
2022/08/05 04:13:39;;;;;;;6.05;5.50;;;18.20;99.90;;;;;;6118750;23;20209;-82
2022/08/05 04:16:18;;;;;;;5.30;4.78;;;18.30;99.90;;;;;;6129193;23;20021;-82
2022/08/05 04:18:52;;;;;;;5.80;5.30;;;18.30;99.90;;;;;;6069802;23;20041;-82
2022/08/05 04:21:24;;;;;;;5.97;5.47;;;18.20;99.90;;;;;;6117379;23;20390;-81
2022/08/05 04:24:12;;;;;;;6.90;5.43;;;18.20;99.90;;;;;;6094931;23;20022;-82
2022/08/05 04:26:49;;;;;;;7.43;6.40;;;18.20;99.90;;;;;;6093791;23;20370;-82
2022/08/05 04:29:17;;;;;;;5.70;5.18;;;18.20;99.90;;;;;;6117773;23;20033;-81
2022/08/05 04:31:46;;;;;;;7.53;5.47;;;18.20;99.90;;;;;;6093984;23;20194;-82
2022/08/05 04:34:16;;;;;;;6.93;6.28;;;18.20;99.90;;;;;;6094419;23;20037;-83
2022/08/05 04:37:00;;;;;;;5.05;4.65;;;18.20;99.90;;;;;;6091593;23;20424;-82
2022/08/05 04:39:30;;;;;;;6.45;5.55;;;18.20;99.90;;;;;;6094020;23;20017;-83
2022/08/05 04:41:59;;;;;;;10.43;4.70;;;18.20;99.90;;;;;;6094476;23;20030;-82
2022/08/05 04:44:30;;;;;;;5.47;4.97;;;18.10;99.90;;;;;;6127700;23;20021;-83
2022/08/05 04:46:58;;;;;;;5.07;4.68;;;18.10;99.90;;;;;;6104131;23;20014;-83
2022/08/05 04:49:26;;;;;;;5.85;5.35;;;18.10;99.90;;;;;;6093478;23;20025;-83
2022/08/05 04:52:15;;;;;;;4.88;4.47;;;18.10;99.90;;;;;;6073102;23;20022;-82
2022/08/05 04:54:43;;;;;;;4.95;4.55;;;18.20;99.90;;;;;;6093673;23;20060;-81
2022/08/05 04:57:11;;;;;;;8.95;5.68;;;18.30;99.90;;;;;;6118226;23;20022;-83
2022/08/05 04:59:38;;;;;;;5.55;4.65;;;18.20;99.90;;;;;;6094292;23;20018;-82
2022/08/05 05:02:07;;;;;;;11.98;5.25;;;18.10;99.90;;;;;;6096837;23;20033;-82
2022/08/05 05:04:57;;;;;;;4.13;3.80;;;18.00;99.90;;;;;;6093926;23;20053;-82
2022/08/05 05:07:30;;;;;;;5.47;5.07;;;17.90;99.90;;;;;;6126729;23;20018;-82
2022/08/05 05:10:05;;;;;;;7.63;4.65;;;18.10;99.90;;;;;;6093494;23;20037;-82
2022/08/05 05:12:33;;;;;;;5.18;4.72;;;18.20;99.90;;;;;;6093650;23;20022;-81
2022/08/05 05:15:05;;;;;;;4.93;4.53;;;18.30;99.90;;;;;;6119212;23;20017;-82
2022/08/05 05:17:42;;;;;;;5.05;4.68;;;18.50;99.90;;;;;;6094071;23;20257;-82
2022/08/05 05:20:24;;;;;;;5.72;5.22;;;18.70;99.90;;;;;;6095186;23;20029;-82
2022/08/05 05:22:57;;;;;;;6.55;5.95;;;18.90;99.90;;;;;;6091989;23;20045;-82
2022/08/05 05:25:25;;;;;;;7.18;5.20;;;19.10;99.90;;;;;;6093552;23;20598;-81
2022/08/05 05:27:59;;;;;;;7.65;4.57;;;19.50;99.90;;;;;;6130668;23;20010;-81
2022/08/05 05:30:27;;;;;;;4.82;3.63;;;19.90;99.90;;;;;;6118328;23;20037;-81
2022/08/05 05:33:02;;;;;;;5.05;4.55;;;20.50;99.90;;;;;;6093938;23;20040;-82
2022/08/05 05:35:45;;;;;;;4.55;4.18;;;21.40;99.90;;;;;;6094914;23;20026;-82
2022/08/05 05:38:17;;;;;;;11.35;6.25;;;22.00;99.90;;;;;;6069006;23;20488;-82
2022/08/05 05:40:55;;;;;;;15.70;4.35;;;22.30;99.90;;;;;;6096691;23;20202;-81
2022/08/05 05:43:23;;;;;;;8.88;4.93;;;22.50;99.90;;;;;;6106288;23;20018;-82
2022/08/05 05:46:11;;;;;;;13.40;6.25;;;22.70;99.90;;;;;;6071613;23;20037;-81
2022/08/05 05:48:46;;;;;;;7.80;3.88;;;22.90;99.90;;;;;;6125090;23;20026;-81
2022/08/05 05:51:22;;;;;;;5.35;4.85;;;23.00;99.90;;;;;;6132155;23;20018;-81
2022/08/05 05:53:52;;;;;;;6.93;5.13;;;23.20;99.90;;;;;;6123284;23;20025;-83
2022/08/05 05:56:27;;;;;;;11.57;4.38;;;23.40;99.90;;;;;;6107380;23;20018;-81
2022/08/05 05:59:02;;;;;;;11.80;3.85;;;23.70;99.90;;;;;;6103753;23;20381;-81
2022/08/05 06:01:38;;;;;;;2.83;2.55;;;23.80;99.90;;;;;;6094575;23;20037;-81
2022/08/05 06:04:09;;;;;;;4.53;3.00;;;23.90;99.90;;;;;;6130361;23;20014;-82
2022/08/05 06:06:41;;;;;;;19.30;5.53;;;24.10;99.90;;;;;;6117941;23;20026;-83
2022/08/05 06:09:16;;;;;;;9.40;3.95;;;24.20;99.90;;;;;;6072202;23;20037;-81
2022/08/05 06:11:55;;;;;;;9.07;4.22;;;24.40;99.90;;;;;;6096248;23;20021;-82
2022/08/05 06:14:30;;;;;;;3.40;3.10;;;24.40;99.90;;;;;;6123091;23;20061;-83
2022/08/05 06:16:59;;;;;;;16.10;3.47;;;24.50;99.90;;;;;;6127014;23;20026;-83
2022/08/05 06:19:47;;;;;;;2.80;2.60;;;24.60;99.90;;;;;;6129580;23;20021;-82
2022/08/05 06:22:31;;;;;;;5.43;4.90;;;24.80;99.90;;;;;;6093606;23;20030;-83
2022/08/05 06:25:02;;;;;;;3.53;3.22;;;24.90;99.90;;;;;;6128999;23;20018;-84
2022/08/05 06:27:50;;;;;;;7.55;3.03;;;25.00;99.90;;;;;;6130148;23;20294;-85
2022/08/05 06:30:37;;;;;;;3.20;2.72;;;25.20;99.90;;;;;;6122047;23;20052;-83
2022/08/05 06:33:05;;;;;;;3.38;2.92;;;25.20;99.90;;;;;;6095066;23;20029;-83
2022/08/05 06:35:37;;;;;;;6.68;3.70;;;25.30;99.90;;;;;;6105186;23;20017;-84
2022/08/05 06:38:25;;;;;;;3.90;2.72;;;25.40;99.90;;;;;;6118913;23;20037;-85
2022/08/05 06:41:05;;;;;;;3.53;3.22;;;25.50;99.90;;;;;;6120917;23;20026;-86
2022/08/05 06:43:35;;;;;;;2.97;2.73;;;25.50;99.90;;;;;;6095749;23;20018;-82
2022/08/05 06:46:23;;;;;;;3.20;2.90;;;25.70;99.90;;;;;;6122139;23;20033;-85
2022/08/05 06:48:57;;;;;;;6.05;3.22;;;25.70;99.90;;;;;;6093676;23;20030;-86
2022/08/05 06:51:28;;;;;;;7.97;3.70;;;25.80;99.90;;;;;;6128861;23;20025;-83
2022/08/05 06:53:59;;;;;;;3.20;2.92;;;25.90;99.90;;;;;;6092221;23;20033;-83
2022/08/05 06:56:28;;;;;;;;;;;25.90;99.90;;;;;;6127213;23;20334;-84
2022/08/05 06:58:56;;;;;;;7.68;2.53;;;26.00;99.90;;;;;;6127378;23;19925;-83
2022/08/05 07:01:23;;;;;;;3.65;3.35;;;26.10;99.90;;;;;;6093235;23;20492;-83
2022/08/05 07:04:00;;;;;;;3.33;3.03;;;26.10;99.90;;;;;;6105846;23;20810;-85
2022/08/05 07:06:29;;;;;;;5.18;3.55;;;26.20;99.90;;;;;;6118119;23;20041;-84
2022/08/05 07:08:59;;;;;;;3.53;3.22;;;26.30;99.90;;;;;;6099714;23;20033;-83
2022/08/05 07:11:33;;;;;;;4.13;3.13;;;26.30;99.90;;;;;;6130353;23;20009;-85
2022/08/05 07:17:01;;;;;;;4.47;2.70;;;26.40;99.90;;;;;;6067523;23;20032;-85
2022/08/05 07:19:52;;;;;;;6.90;3.40;;;26.40;99.90;;;;;;6129018;23;20021;-86
2022/08/05 07:22:39;;;;;;;;;;;26.20;99.90;;;;;;6115482;23;20354;-84
2022/08/05 07:25:08;;;;;;;4.13;3.50;;;26.30;99.90;;;;;;6093526;23;19924;-83
2022/08/05 07:27:56;;;;;;;3.80;2.35;;;26.50;99.90;;;;;;6127778;23;20022;-83
2022/08/05 07:30:45;;;;;;;2.55;2.35;;;26.50;99.90;;;;;;6073542;23;20018;-80
2022/08/05 07:33:20;;;;;;;3.08;2.88;;;26.30;99.90;;;;;;6072297;23;20030;-81
2022/08/05 07:36:04;;;;;;;3.80;3.50;;;26.30;99.90;;;;;;6121601;23;20018;-85
2022/08/05 07:38:48;;;;;;;2.70;2.47;;;26.40;99.90;;;;;;6123805;23;20029;-81
2022/08/05 07:41:23;;;;;;;3.90;3.05;;;26.80;99.90;;;;;;6098431;23;20022;-82
2022/08/05 07:44:11;;;;;;;3.70;3.40;;;26.90;99.90;;;;;;6132968;23;20429;-82
2022/08/05 07:46:46;;;;;;;4.15;2.47;;;26.90;99.90;;;;;;6122253;23;20017;-82
2022/08/05 07:49:16;;;;;;;2.33;2.15;;;27.00;99.70;;;;;;6049501;23;1118971;-78
2022/08/05 07:51:45;;;;;;;3.70;2.88;;;27.00;99.50;;;;;;6132096;23;20018;-78
2022/08/05 07:54:27;;;;;;;5.32;2.90;;;27.20;99.70;;;;;;6125478;23;20022;-78
2022/08/05 07:56:58;;;;;;;6.75;2.60;;;27.20;98.70;;;;;;6131550;23;20033;-83
2022/08/05 07:59:52;;;;;;;7.38;2.97;;;27.20;99.10;;;;;;6134201;23;20014;-83
2022/08/05 08:02:27;;;;;;;10.48;3.47;;;27.20;99.00;;;;;;6126370;23;20021;-84
2022/08/05 08:05:16;;;;;;;8.98;3.15;;;27.00;99.00;;;;;;6130276;23;20036;-83
2022/08/05 08:07:44;;;;;;;3.70;2.80;;;26.90;99.60;;;;;;6134012;23;20014;-82
2022/08/05 08:10:27;;;;;;;5.43;3.03;;;26.80;99.90;;;;;;6099228;23;20028;-84
2022/08/05 08:12:57;;;;;;;7.20;3.45;;;26.80;99.40;;;;;;6083757;23;20456;-82
2022/08/05 08:15:28;;;;;;;3.15;2.80;;;26.90;98.90;;;;;;6135146;23;20014;-81
2022/08/05 08:18:16;;;;;;;5.82;2.72;;;27.00;98.50;;;;;;6125439;23;20030;-76
2022/08/05 08:20:50;;;;;;;2.95;2.42;;;27.20;99.90;;;;;;6096699;23;20034;-77
2022/08/05 08:23:31;;;;;;;4.82;3.13;;;27.50;99.90;;;;;;6121485;23;20033;-77
2022/08/05 08:26:20;;;;;;;6.35;3.00;;;27.70;99.30;;;;;;6125205;23;20021;-77
2022/08/05 08:28:57;;;;;;;6.28;3.30;;;27.90;99.30;;;;;;6130557;23;20025;-78
2022/08/05 08:31:45;;;;;;;16.27;3.38;;;28.00;98.40;;;;;;6094704;23;20021;-81
2022/08/05 08:34:16;;;;;;;5.63;3.47;;;27.90;99.00;;;;;;6126246;23;20030;-82
2022/08/05 08:36:45;;;;;;;;;;;27.70;98.30;;;;;;6121338;23;20558;-82
2022/08/05 08:39:23;;;;;;;2.55;2.35;;;27.60;99.20;;;;;;6098455;23;19917;-80
2022/08/05 08:41:55;;;;;;;34.95;4.75;;;27.60;98.80;;;;;;6128216;23;20029;-80
2022/08/05 08:44:30;;;;;;;4.05;3.58;;;27.50;99.50;;;;;;6132438;23;20018;-81
2022/08/05 08:47:22;;;;;;;3.67;3.17;;;27.50;98.80;;;;;;6132268;23;20021;-78
2022/08/05 08:50:12;;;;;;;3.22;2.80;;;27.60;98.60;;;;;;6092839;23;20022;-78
2022/08/05 08:53:04;;;;;;;6.90;4.38;;;27.40;98.80;;;;;;6089761;23;20018;-82
2022/08/05 08:55:39;;;;;;;3.53;3.22;;;27.20;98.50;;;;;;6104608;23;20015;-79
2022/08/05 08:58:28;;;;;;;4.40;4.10;;;27.20;99.50;;;;;;6095818;23;20034;-77
2022/08/05 09:01:11;;;;;;;25.08;4.60;;;27.20;99.20;;;;;;6101161;23;20019;-80
2022/08/05 09:03:51;;;;;;;10.02;4.63;;;27.30;98.40;;;;;;6105257;23;20026;-78
2022/08/05 09:06:25;;;;;;;5.07;4.18;;;27.10;98.70;;;;;;6096138;23;20324;-78
2022/08/05 09:09:00;;;;;;;12.90;4.78;;;27.10;98.70;;;;;;6102104;23;20027;-79
2022/08/05 09:11:29;;;;;;;4.20;3.80;;;27.10;98.30;;;;;;6105183;23;20018;-78
2022/08/05 09:14:17;;;;;;;9.68;4.43;;;27.00;98.60;;;;;;6097117;23;20057;-84
2022/08/05 09:17:07;;;;;;;8.70;3.83;;;27.10;98.40;;;;;;6095380;23;20027;-83
2022/08/05 09:19:36;;;;;;;6.93;3.92;;;27.20;98.10;;;;;;6082217;23;20345;-83
2022/08/05 09:22:25;;;;;;;5.28;4.75;;;27.10;98.20;;;;;;6097923;23;20033;-81
2022/08/05 09:25:00;;;;;;;10.25;4.22;;;27.10;98.60;;;;;;6102832;23;20026;-78
2022/08/05 09:27:40;;;;;;;4.88;4.45;;;27.00;97.90;;;;;;6095916;23;20467;-78
2022/08/05 09:30:28;;;;;;;3.95;3.65;;;27.00;98.80;;;;;;6095822;23;20037;-78
2022/08/05 09:33:00;;;;;;;5.22;4.53;;;27.00;98.00;;;;;;6094322;23;20026;-79
2022/08/05 09:35:28;;;;;;;6.22;4.30;;;27.10;97.90;;;;;;6106226;23;20014;-79
2022/08/05 09:37:57;;;;;;;5.97;5.43;;;27.00;98.60;;;;;;6098366;23;20030;-78
2022/08/05 09:40:45;;;;;;;8.15;5.13;;;27.10;97.70;;;;;;6105850;23;20021;-81
2022/08/05 09:43:32;;;;;;;10.45;4.65;;;27.00;99.30;;;;;;6106197;23;20757;-83
2022/08/05 09:46:32;;;;;;;10.27;5.63;;;27.00;99.00;;;;;;6095553;23;20030;-83
2022/08/05 09:49:05;;;;;;;8.82;4.43;;;27.40;98.70;;;;;;6111326;23;20037;-81
2022/08/05 09:51:47;;;;;;;6.78;4.68;;;27.40;97.60;;;;;;6100950;23;20017;-84
2022/08/05 09:54:29;;;;;;;5.47;5.00;;;27.30;98.80;;;;;;6128994;23;20025;-81
2022/08/05 09:56:58;;;;;;;6.22;5.57;;;27.30;98.20;;;;;;6076563;23;20037;-81
2022/08/05 09:59:35;;;;;;;4.55;4.00;;;27.30;98.60;;;;;;6134353;23;20693;-83
2022/08/05 10:02:04;;;;;;;5.05;4.43;;;27.40;98.50;;;;;;6129169;23;20030;-81
2022/08/05 10:04:38;;;;;;;22.23;5.07;;;27.40;98.00;;;;;;6135398;23;20013;-81
2022/08/05 10:07:07;;;;;;;5.15;4.50;;;27.20;98.60;;;;;;6136345;23;20014;-83
2022/08/05 10:09:55;;;;;;;10.15;4.50;;;27.30;98.20;;;;;;6130409;23;20030;-78
2022/08/05 10:12:44;;;;;;;13.85;4.93;;;27.20;96.50;;;;;;6134535;23;20025;-79
2022/08/05 10:15:29;;;;;;;6.63;5.40;;;27.10;97.10;;;;;;6075472;23;20017;-78
2022/08/05 10:18:03;;;;;;;4.47;4.07;;;27.30;97.70;;;;;;6098690;23;20026;-79
2022/08/05 10:20:33;;;;;;;7.55;5.15;;;27.60;97.60;;;;;;6099592;23;20472;-79
2022/08/05 10:23:01;;;;;;;7.22;4.25;;;27.40;96.70;;;;;;6135043;23;20010;-78
2022/08/05 10:25:30;;;;;;;9.35;5.13;;;27.20;97.40;;;;;;6104567;23;20349;-78
2022/08/05 10:27:59;;;;;;;7.60;3.85;;;27.20;97.00;;;;;;6134901;23;20025;-78
2022/08/05 10:30:48;;;;;;;6.57;4.13;;;27.20;97.40;;;;;;6126759;23;20026;-83
2022/08/05 10:33:36;;;;;;;8.90;3.67;;;27.30;99.40;;;;;;6131384;23;20025;-83
2022/08/05 10:36:06;;;;;;;5.18;4.20;;;27.40;98.00;;;;;;6135134;23;20611;-82
2022/08/05 10:38:36;;;;;;;6.22;4.20;;;27.50;97.50;;;;;;6125444;23;20021;-79
2022/08/05 10:41:31;;;;;;;4.38;4.00;;;27.60;96.50;;;;;;6131025;23;20037;-79
2022/08/05 10:44:18;;;;;;;4.25;3.95;;;27.70;96.40;;;;;;6135122;23;20025;-83
2022/08/05 10:46:54;;;;;;;4.80;4.30;;;27.60;96.60;;;;;;6126182;23;20018;-83
2022/08/05 10:49:24;;;;;;;7.72;4.45;;;27.60;96.40;;;;;;6078679;23;20022;-81
2022/08/05 10:52:01;;;;;;;8.32;4.13;;;27.70;97.10;;;;;;6135947;23;20325;-80
2022/08/05 10:55:01;;;;;;;13.15;5.05;;;27.90;95.90;;;;;;6126063;23;20022;-82
2022/08/05 10:57:29;;;;;;;4.90;4.45;;;27.90;97.30;;;;;;6100204;23;20025;-82
2022/08/05 11:00:17;;;;;;;4.30;3.92;;;27.80;96.20;;;;;;6099849;23;20017;-83
2022/08/05 11:03:05;;;;;;;16.23;5.50;;;27.80;95.80;;;;;;6099836;23;20075;-84
2022/08/05 11:06:06;;;;;;;11.15;4.55;;;27.80;96.00;;;;;;6128719;23;20030;-83
2022/08/05 11:08:35;;;;;;;8.38;4.72;;;27.80;96.30;;;;;;6133724;23;20653;-83
2022/08/05 11:11:33;;;;;;;4.40;4.00;;;28.00;95.80;;;;;;6134987;23;20017;-83
2022/08/05 11:14:32;;;;;;;10.25;4.38;;;28.40;95.30;;;;;;6102362;23;20018;-83
2022/08/05 11:17:25;;;;;;;5.85;3.75;;;28.20;96.40;;;;;;6125147;23;20026;-81
2022/08/05 11:20:38;;;;;;;12.82;4.25;;;28.20;95.40;;;;;;6100070;23;20410;-83
2022/08/05 11:23:33;;;;;;;9.18;3.83;;;28.30;95.50;;;;;;6052454;23;20022;-87
2022/08/05 11:26:22;;;;;;;4.13;3.83;;;28.40;96.40;;;;;;6099711;23;20022;-87
2022/08/05 11:29:04;;;;;;;7.80;3.92;;;28.50;96.30;;;;;;6099569;23;20026;-87
2022/08/05 11:31:44;;;;;;;10.68;5.15;;;28.70;95.00;;;;;;6134640;23;20018;-83
2022/08/05 11:35:03;;;;;;;4.82;4.25;;;28.70;95.10;;;;;;6100834;23;20033;-87
2022/08/05 11:38:03;;;;;;;5.18;3.60;;;28.90;94.10;;;;;;6083412;23;20030;-87
2022/08/05 11:41:08;;;;;;;3.70;3.40;;;28.60;95.40;;;;;;6048048;23;20034;-83
2022/08/05 11:44:14;;;;;;;11.35;3.80;;;28.70;94.40;;;;;;6104258;23;20084;-87
2022/08/05 11:46:58;;;;;;;5.05;3.55;;;28.50;95.90;;;;;;6095318;23;20022;-87
2022/08/05 11:49:42;;;;;;;6.03;3.65;;;28.60;95.90;;;;;;6073436;23;20025;-87
2022/08/05 11:52:28;;;;;;;3.30;3.00;;;28.60;94.90;;;;;;6126396;23;20014;-88
2022/08/05 11:54:58;;;;;;;10.13;4.97;;;28.40;95.00;;;;;;6117657;23;20022;-87
2022/08/05 11:57:34;;;;;;;6.10;3.15;;;28.40;95.50;;;;;;6124817;23;20022;-88
2022/08/05 12:00:30;;;;;;;3.65;2.70;;;28.80;94.30;;;;;;6112423;23;20472;-84
2022/08/05 12:03:19;;;;;;;3.55;3.25;;;28.90;95.40;;;;;;6097477;23;20026;-83
2022/08/05 12:06:01;;;;;;;6.80;2.53;;;29.20;93.60;;;;;;6126591;23;20045;-83
2022/08/05 12:08:28;;;;;;;;;;;29.20;93.40;;;;;;6098107;23;20476;-84
2022/08/05 12:11:01;;;;;;;5.25;2.83;;;29.10;95.00;;;;;;6136058;23;19923;-84
2022/08/05 12:13:33;;;;;;;6.75;2.75;;;28.90;93.40;;;;;;6122824;23;20037;-84
2022/08/05 12:16:19;;;;;;;3.30;3.03;;;28.70;94.70;;;;;;6135059;23;20071;-84
2022/08/05 12:18:54;;;;;;;10.07;3.33;;;28.70;94.50;;;;;;6122616;23;20022;-85
2022/08/05 12:21:25;;;;;;;3.15;2.85;;;28.80;93.00;;;;;;6129672;23;20640;-83
2022/08/05 12:24:00;;;;;;;3.65;2.38;;;28.80;94.40;;;;;;6135050;23;20333;-85
2022/08/05 12:26:37;;;;;;;6.40;3.42;;;28.80;93.40;;;;;;6126190;23;20026;-83
2022/08/05 12:29:17;;;;;;;5.32;3.10;;;28.70;93.90;;;;;;6131886;23;20460;-83
2022/08/05 12:31:52;;;;;;;6.45;4.10;;;28.60;94.20;;;;;;6134585;23;20022;-82
2022/08/05 12:34:31;;;;;;;4.95;2.95;;;28.50;93.40;;;;;;6125294;23;20402;-84
2022/08/05 12:37:09;;;;;;;3.67;2.92;;;28.50;93.70;;;;;;6128690;23;20090;-79
2022/08/05 12:39:44;;;;;;;3.80;3.50;;;28.50;94.00;;;;;;6133118;23;20013;-80
2022/08/05 12:42:19;;;;;;;8.77;3.63;;;28.40;93.80;;;;;;6125181;23;20345;-80
2022/08/05 12:44:48;;;;;;;2.55;2.40;;;28.40;95.10;;;;;;6097367;23;20084;-80
2022/08/05 12:47:27;;;;;;;7.55;3.33;;;28.40;95.40;;;;;;6130689;23;20018;-83
2022/08/05 12:49:58;;;;;;;7.50;3.45;;;28.40;94.90;;;;;;6124671;23;20018;-83
2022/08/05 12:52:34;;;;;;;6.63;3.13;;;28.40;95.80;;;;;;6131940;23;20014;-83
2022/08/05 12:55:26;;;;;;;6.72;3.05;;;28.60;93.70;;;;;;6135149;23;20017;-83
2022/08/05 12:57:59;;;;;;;4.65;2.72;;;28.80;94.30;;;;;;6126759;23;20022;-80
2022/08/05 13:00:47;;;;;;;7.70;3.00;;;28.80;93.30;;;;;;6130880;23;20036;-80
2022/08/05 13:03:36;;;;;;;3.22;2.60;;;28.80;92.90;;;;;;6134753;23;20010;-83
2022/08/05 13:06:15;;;;;;;3.55;2.67;;;28.90;95.20;;;;;;6127471;23;20030;-83
2022/08/05 13:08:46;;;;;;;3.33;2.38;;;28.80;94.40;;;;;;6130434;23;20010;-83
2022/08/05 13:11:27;;;;;;;5.20;2.63;;;28.80;94.40;;;;;;6099686;23;20617;-82
2022/08/05 13:14:20;;;;;;;3.03;2.75;;;28.90;94.30;;;;;;6127040;23;20025;-82
2022/08/05 13:17:24;;;;;;;3.67;3.08;;;29.00;93.80;;;;;;6130957;23;20026;-82
2022/08/05 13:20:14;;;;;;;6.72;3.35;;;29.40;93.20;;;;;;6134924;23;20445;-82
2022/08/05 13:22:50;;;;;;;3.47;3.17;;;29.90;93.30;;;;;;6099833;23;20389;-83
2022/08/05 13:25:19;;;;;;;2.60;2.38;;;30.10;93.50;;;;;;6130829;23;20022;-83
2022/08/05 13:28:07;;;;;;;6.63;3.03;;;30.20;92.80;;;;;;6132470;23;20018;-79
2022/08/05 13:30:45;;;;;;;;;;;30.30;92.70;;;;;;6124767;23;20026;-83
2022/08/05 13:33:14;;;;;;;2.80;2.58;;;30.20;91.60;;;;;;6130864;23;19917;-83
2022/08/05 13:36:02;;;;;;;4.65;3.10;;;30.00;91.00;;;;;;6099182;23;20311;-83
2022/08/05 13:38:31;;;;;;;3.38;2.58;;;29.80;92.10;;;;;;6123692;23;20026;-84
2022/08/05 13:41:03;;;;;;;7.50;4.30;;;29.70;92.10;;;;;;6131284;23;20026;-80
2022/08/05 13:43:30;;;;;;;3.13;2.83;;;29.50;92.20;;;;;;6097315;23;20018;-79
2022/08/05 13:46:13;;;;;;;3.28;2.58;;;29.30;93.10;;;;;;6125423;23;20036;-80
2022/08/05 13:48:42;;;;;;;4.00;2.78;;;29.20;92.30;;;;;;6125950;23;20025;-80
2022/08/05 13:51:32;;;;;;;3.30;2.55;;;29.20;92.80;;;;;;6132573;23;20018;-80